createdAt,value
2023-02-02T00:01:58.999Z,2.30
2023-02-02T00:04:32.981Z,2.30
2023-02-02T00:07:00.292Z,2.40
2023-02-02T00:09:29.719Z,2.40
2023-02-02T00:11:56.987Z,2.40
2023-02-02T00:14:24.806Z,2.40
2023-02-02T00:16:53.768Z,2.40
2023-02-02T00:19:27.365Z,2.40
2023-02-02T00:21:55.064Z,2.50
2023-02-02T00:24:22.346Z,2.40
2023-02-02T00:26:53.063Z,2.50
2023-02-02T00:29:23.092Z,2.50
2023-02-02T00:31:50.659Z,2.50
2023-02-02T00:34:18.211Z,2.50
2023-02-02T00:36:47.546Z,2.50
2023-02-02T00:39:23.001Z,2.50
2023-02-02T00:41:50.246Z,2.40
2023-02-02T00:44:35.932Z,2.40
2023-02-02T00:47:03.381Z,2.40
2023-02-02T00:49:30.539Z,2.30
2023-02-02T00:51:57.716Z,2.30
2023-02-02T00:54:25.913Z,2.30
2023-02-02T00:56:53.068Z,2.20
2023-02-02T00:59:20.258Z,2.20
2023-02-02T01:01:47.468Z,2.20
2023-02-02T01:04:14.645Z,2.20
2023-02-02T01:06:42.336Z,2.10
2023-02-02T01:09:09.689Z,2.10
2023-02-02T01:11:36.969Z,2.10
2023-02-02T01:14:04.152Z,2.10
2023-02-02T01:16:31.345Z,2.00
2023-02-02T01:18:58.514Z,2.00
2023-02-02T01:21:25.671Z,2.00
2023-02-02T01:23:52.934Z,2.00
2023-02-02T01:26:20.161Z,2.00
2023-02-02T01:28:47.379Z,2.00
2023-02-02T01:31:19.277Z,2.00
2023-02-02T01:33:47.754Z,2.00
2023-02-02T01:36:20.147Z,2.00
2023-02-02T01:38:47.794Z,2.00
2023-02-02T01:41:23.404Z,2.00
2023-02-02T01:43:53.052Z,2.10
2023-02-02T01:46:26.764Z,2.10
2023-02-02T01:48:59.645Z,2.00
2023-02-02T01:51:45.695Z,2.10
2023-02-02T01:54:24.209Z,2.10
2023-02-02T01:57:00.900Z,2.10
2023-02-02T01:59:28.625Z,2.10
2023-02-02T02:01:55.867Z,2.10
2023-02-02T02:04:23.647Z,2.20
2023-02-02T02:06:52.655Z,2.20
2023-02-02T02:09:20.736Z,2.20
2023-02-02T02:11:48.390Z,2.20
2023-02-02T02:14:34.505Z,2.20
2023-02-02T02:17:10.794Z,2.20
2023-02-02T02:20:33.457Z,2.20
2023-02-02T02:23:52.085Z,2.30
2023-02-02T02:26:48.772Z,2.30
2023-02-02T02:30:05.263Z,2.20
2023-02-02T02:32:46.548Z,2.30
2023-02-02T02:35:40.477Z,2.30
2023-02-02T02:38:18.128Z,2.40
2023-02-02T02:40:53.996Z,2.40
2023-02-02T02:43:35.207Z,2.40
2023-02-02T02:46:02.919Z,2.30
2023-02-02T02:48:30.986Z,2.40
2023-02-02T02:51:08.876Z,2.30
2023-02-02T02:53:36.737Z,2.30
2023-02-02T02:56:20.318Z,2.20
2023-02-02T02:58:56.505Z,2.30
2023-02-02T03:02:04.994Z,2.30
2023-02-02T03:05:00.527Z,2.40
2023-02-02T03:07:42.254Z,2.40
2023-02-02T03:10:11.358Z,2.40
2023-02-02T03:12:49.669Z,2.40
2023-02-02T03:15:17.204Z,2.40
2023-02-02T03:17:45.405Z,2.40
2023-02-02T03:20:13.348Z,2.50
2023-02-02T03:22:40.449Z,2.50
2023-02-02T03:25:11.057Z,2.50
2023-02-02T03:27:39.025Z,2.50
2023-02-02T03:30:08.412Z,2.50
2023-02-02T03:32:35.953Z,2.60
2023-02-02T03:35:03.462Z,2.50
2023-02-02T03:37:30.592Z,2.50
2023-02-02T03:39:57.755Z,2.50
2023-02-02T03:42:24.906Z,2.50
2023-02-02T03:44:52.093Z,2.50
2023-02-02T03:47:19.292Z,2.50
2023-02-02T03:49:46.424Z,2.60
2023-02-02T03:52:13.594Z,2.60
2023-02-02T03:54:40.695Z,2.60
2023-02-02T03:57:07.946Z,2.60
2023-02-02T03:59:35.049Z,2.60
2023-02-02T04:02:03.223Z,2.60
2023-02-02T04:04:30.403Z,2.60
2023-02-02T04:06:58.726Z,2.60
2023-02-02T04:09:26.132Z,2.60
2023-02-02T04:11:53.531Z,2.60
2023-02-02T04:14:20.703Z,2.60
2023-02-02T04:16:47.885Z,2.60
2023-02-02T04:19:15.161Z,2.60
2023-02-02T04:21:42.323Z,2.60
2023-02-02T04:24:13.414Z,2.60
2023-02-02T04:26:40.879Z,2.60
2023-02-02T04:29:08.261Z,2.50
2023-02-02T04:31:35.491Z,2.60
2023-02-02T04:34:02.655Z,2.60
2023-02-02T04:36:29.826Z,2.50
2023-02-02T04:39:00.111Z,2.50
2023-02-02T04:41:27.311Z,2.50
2023-02-02T04:43:54.429Z,2.60
2023-02-02T04:46:21.572Z,2.60
2023-02-02T04:48:49.574Z,2.60
2023-02-02T04:51:18.698Z,2.60
2023-02-02T04:53:46.058Z,2.60
2023-02-02T04:56:17.986Z,2.60
2023-02-02T04:58:45.545Z,2.60
2023-02-02T05:01:15.636Z,2.60
2023-02-02T05:03:42.852Z,2.60
2023-02-02T05:06:10.216Z,2.60
2023-02-02T05:08:37.411Z,2.60
2023-02-02T05:11:11.789Z,2.60
2023-02-02T05:13:39.013Z,2.60
2023-02-02T05:16:07.145Z,2.60
2023-02-02T05:18:34.302Z,2.60
2023-02-02T05:21:02.229Z,2.60
2023-02-02T05:23:29.626Z,2.60
2023-02-02T05:25:56.824Z,2.60
2023-02-02T05:28:24.143Z,2.60
2023-02-02T05:30:51.597Z,2.60
2023-02-02T05:33:19.826Z,2.60
2023-02-02T05:35:48.205Z,2.60
2023-02-02T05:38:15.606Z,2.60
2023-02-02T05:40:42.744Z,2.60
2023-02-02T05:43:09.918Z,2.60
2023-02-02T05:45:37.066Z,2.50
2023-02-02T05:48:04.398Z,2.60
2023-02-02T05:50:31.990Z,2.60
2023-02-02T05:53:04.234Z,2.60
2023-02-02T05:55:31.356Z,2.60
2023-02-02T05:57:58.540Z,2.60
2023-02-02T06:00:25.774Z,2.60
2023-02-02T06:02:52.980Z,2.60
2023-02-02T06:05:20.145Z,2.60
2023-02-02T06:07:47.295Z,2.60
2023-02-02T06:10:14.430Z,2.60
2023-02-02T06:12:41.544Z,2.60
2023-02-02T06:15:09.372Z,2.60
2023-02-02T06:17:36.479Z,2.60
2023-02-02T06:20:04.437Z,2.60
2023-02-02T06:22:32.532Z,2.60
2023-02-02T06:25:00.111Z,2.60
2023-02-02T06:27:27.224Z,2.60
2023-02-02T06:29:54.364Z,2.60
2023-02-02T06:32:21.544Z,2.60
2023-02-02T06:34:48.633Z,2.60
2023-02-02T06:37:15.811Z,2.60
2023-02-02T06:39:42.913Z,2.60
2023-02-02T06:42:20.690Z,2.60
2023-02-02T06:44:49.061Z,2.60
2023-02-02T06:47:16.187Z,2.60
2023-02-02T06:49:43.340Z,2.60
2023-02-02T06:52:10.491Z,2.60
2023-02-02T06:54:37.638Z,2.60
2023-02-02T06:57:06.059Z,2.60
2023-02-02T06:59:34.194Z,2.60
2023-02-02T07:02:01.350Z,2.70
2023-02-02T07:04:28.552Z,2.70
2023-02-02T07:06:55.731Z,2.70
2023-02-02T07:09:22.817Z,2.70
2023-02-02T07:11:49.979Z,2.70
2023-02-02T07:14:17.117Z,2.70
2023-02-02T07:16:44.257Z,2.70
2023-02-02T07:19:11.387Z,2.70
2023-02-02T07:21:38.614Z,2.70
2023-02-02T07:24:07.905Z,2.70
2023-02-02T07:26:36.046Z,2.70
2023-02-02T07:29:04.538Z,2.70
2023-02-02T07:31:33.540Z,2.70
2023-02-02T07:34:02.817Z,2.70
2023-02-02T07:36:29.921Z,2.70
2023-02-02T07:39:03.912Z,2.70
2023-02-02T07:41:31.517Z,2.70
2023-02-02T07:43:58.707Z,2.70
2023-02-02T07:46:25.929Z,2.70
2023-02-02T07:48:57.025Z,2.80
2023-02-02T07:51:24.900Z,2.80
2023-02-02T07:53:59.427Z,2.80
2023-02-02T07:56:28.262Z,2.70
2023-02-02T07:58:56.157Z,2.70
2023-02-02T08:01:23.752Z,2.70
2023-02-02T08:03:51.124Z,2.80
2023-02-02T08:06:40.844Z,2.80
2023-02-02T08:09:08.888Z,2.80
2023-02-02T08:11:37.830Z,2.80
2023-02-02T08:14:05.222Z,2.80
2023-02-02T08:16:32.807Z,2.80
2023-02-02T08:19:00.116Z,2.80
2023-02-02T08:21:27.599Z,2.80
2023-02-02T08:23:54.864Z,2.80
2023-02-02T08:26:27.468Z,2.80
2023-02-02T08:29:06.450Z,2.90
2023-02-02T08:31:36.228Z,2.90
2023-02-02T08:34:04.171Z,2.90
2023-02-02T08:36:31.522Z,2.90
2023-02-02T08:39:03.775Z,2.90
2023-02-02T08:41:30.942Z,3.10
2023-02-02T08:43:58.048Z,3.00
2023-02-02T08:46:25.392Z,3.10
2023-02-02T08:48:52.578Z,3.10
2023-02-02T08:51:20.140Z,3.10
2023-02-02T08:53:47.443Z,3.10
2023-02-02T08:56:20.366Z,3.00
2023-02-02T08:58:56.102Z,3.10
2023-02-02T09:01:30.787Z,3.10
2023-02-02T09:04:06.613Z,3.20
2023-02-02T09:06:43.466Z,3.10
2023-02-02T09:09:15.153Z,3.20
2023-02-02T09:11:42.653Z,3.10
2023-02-02T09:14:13.627Z,3.10
2023-02-02T09:16:43.442Z,3.10
2023-02-02T09:19:11.472Z,3.20
2023-02-02T09:21:38.675Z,3.10
2023-02-02T09:24:10.836Z,3.10
2023-02-02T09:26:41.148Z,3.10
2023-02-02T09:29:11.381Z,3.10
2023-02-02T09:31:38.797Z,3.10
2023-02-02T09:34:14.293Z,3.10
2023-02-02T09:36:42.043Z,3.10
2023-02-02T09:39:14.449Z,3.10
2023-02-02T09:41:41.770Z,3.10
2023-02-02T09:44:50.427Z,3.20
2023-02-02T09:47:39.215Z,3.10
2023-02-02T09:50:45.317Z,3.10
2023-02-02T09:53:36.641Z,3.10
2023-02-02T09:56:09.337Z,3.10
2023-02-02T09:58:53.185Z,3.10
2023-02-02T10:01:38.523Z,3.20
2023-02-02T10:04:26.216Z,3.10
2023-02-02T10:06:56.361Z,3.10
2023-02-02T10:10:00.149Z,3.10
2023-02-02T10:12:33.271Z,3.20
2023-02-02T10:15:20.498Z,3.10
2023-02-02T10:18:05.586Z,3.10
2023-02-02T10:20:51.344Z,3.20
2023-02-02T10:23:37.018Z,3.20
2023-02-02T10:26:27.025Z,3.20
2023-02-02T10:29:09.064Z,3.20
2023-02-02T10:31:49.777Z,3.20
2023-02-02T10:34:41.390Z,3.20
2023-02-02T10:37:34.521Z,3.20
2023-02-02T10:40:43.704Z,3.30
2023-02-02T10:43:46.339Z,3.30
2023-02-02T10:46:28.117Z,3.30
2023-02-02T10:49:27.942Z,3.40
2023-02-02T10:52:25.562Z,3.40
2023-02-02T10:55:19.313Z,3.40
2023-02-02T10:58:16.105Z,3.50
2023-02-02T11:00:52.490Z,3.40
2023-02-02T11:03:31.609Z,3.40
2023-02-02T11:06:21.599Z,3.50
2023-02-02T11:08:56.781Z,3.40
2023-02-02T11:11:36.885Z,3.50
2023-02-02T11:14:18.392Z,3.50
2023-02-02T11:16:45.809Z,3.50
2023-02-02T11:19:21.950Z,3.50
2023-02-02T11:22:00.823Z,3.50
2023-02-02T11:24:40.110Z,3.50
2023-02-02T11:27:22.967Z,3.50
2023-02-02T11:29:57.171Z,3.50
2023-02-02T11:32:33.279Z,3.60
2023-02-02T11:35:20.970Z,3.60
2023-02-02T11:38:17.738Z,3.60
2023-02-02T11:40:48.931Z,3.70
2023-02-02T11:43:36.258Z,3.60
2023-02-02T11:46:05.909Z,3.70
2023-02-02T11:48:41.142Z,3.70
2023-02-02T11:51:11.354Z,3.70
2023-02-02T11:53:51.616Z,3.70
2023-02-02T11:56:26.500Z,3.80
2023-02-02T11:58:59.295Z,3.70
2023-02-02T12:01:36.296Z,3.80
2023-02-02T12:04:25.854Z,3.80
2023-02-02T12:06:53.026Z,3.80
2023-02-02T12:09:24.480Z,3.80
2023-02-02T12:12:18.742Z,3.80
2023-02-02T12:15:33.171Z,3.80
2023-02-02T12:18:47.039Z,3.80
2023-02-02T12:21:19.524Z,3.80
2023-02-02T12:24:12.171Z,3.80
2023-02-02T12:26:40.261Z,3.90
2023-02-02T12:29:13.947Z,3.90
2023-02-02T12:31:59.120Z,3.90
2023-02-02T12:35:00.123Z,3.90
2023-02-02T12:41:31.069Z,3.90
2023-02-02T12:44:22.811Z,4.00
2023-02-02T12:47:30.374Z,3.90
2023-02-02T12:50:37.841Z,3.90
2023-02-02T12:53:37.175Z,4.00
2023-02-02T12:57:01.619Z,4.00
2023-02-02T12:59:47.569Z,4.00
2023-02-02T13:02:38.017Z,3.90
2023-02-02T13:05:46.563Z,4.00
2023-02-02T13:08:40.040Z,4.00
2023-02-02T13:11:31.746Z,4.00
2023-02-02T13:14:08.355Z,4.00
2023-02-02T13:16:36.788Z,4.10
2023-02-02T13:19:35.239Z,4.10
2023-02-02T13:22:03.656Z,4.20
2023-02-02T13:24:33.497Z,4.20
2023-02-02T13:27:03.183Z,4.30
2023-02-02T13:29:44.313Z,4.30
2023-02-02T13:32:32.057Z,4.40
2023-02-02T13:35:03.277Z,4.40
2023-02-02T13:37:39.478Z,4.50
2023-02-02T13:40:35.875Z,4.40
2023-02-02T13:43:17.060Z,4.50
2023-02-02T13:46:17.493Z,4.50
2023-02-02T13:49:16.150Z,4.50
2023-02-02T13:52:09.284Z,4.50
2023-02-02T13:55:04.520Z,4.40
2023-02-02T13:58:25.132Z,4.40
2023-02-02T14:00:54.690Z,4.40
2023-02-02T14:03:41.450Z,4.30
2023-02-02T14:06:23.735Z,4.20
2023-02-02T14:09:03.227Z,4.20
2023-02-02T14:11:35.896Z,4.20
2023-02-02T14:14:32.028Z,4.20
2023-02-02T14:17:24.762Z,4.20
2023-02-02T14:19:52.869Z,4.10
2023-02-02T14:22:54.518Z,4.10
2023-02-02T14:25:33.669Z,4.00
2023-02-02T14:28:08.374Z,3.90
2023-02-02T14:30:37.084Z,3.90
2023-02-02T14:33:19.101Z,3.70
2023-02-02T14:35:46.066Z,3.70
2023-02-02T14:38:38.538Z,3.60
2023-02-02T14:41:36.164Z,3.50
2023-02-02T14:44:05.105Z,3.50
2023-02-02T14:46:38.661Z,3.40
2023-02-02T14:49:13.391Z,3.40
2023-02-02T14:51:59.506Z,3.40
2023-02-02T14:54:36.137Z,3.30
2023-02-02T14:57:25.290Z,3.30
2023-02-02T14:59:52.636Z,3.30
2023-02-02T15:02:40.040Z,3.20
2023-02-02T15:05:28.765Z,3.20
2023-02-02T15:08:24.500Z,3.10
2023-02-02T15:10:59.952Z,3.10
2023-02-02T15:13:37.850Z,3.10
2023-02-02T15:16:12.168Z,3.10
2023-02-02T15:18:44.537Z,3.10
2023-02-02T15:21:15.103Z,3.00
2023-02-02T15:23:44.678Z,2.90
2023-02-02T15:26:30.627Z,3.00
2023-02-02T15:29:07.141Z,3.00
2023-02-02T15:31:43.768Z,3.10
2023-02-02T15:34:21.772Z,3.10
2023-02-02T15:36:55.156Z,3.20
2023-02-02T15:39:32.183Z,3.10
2023-02-02T15:42:25.768Z,3.20
2023-02-02T15:44:52.897Z,3.20
2023-02-02T15:47:25.245Z,3.20
2023-02-02T15:49:52.500Z,3.20
2023-02-02T15:52:25.668Z,3.20
2023-02-02T15:54:55.170Z,3.20
2023-02-02T15:57:30.593Z,3.30
2023-02-02T15:59:58.248Z,3.30
2023-02-02T16:02:37.219Z,3.30
2023-02-02T16:05:29.244Z,3.20
2023-02-02T16:08:05.753Z,3.30
2023-02-02T16:10:34.207Z,3.20
2023-02-02T16:13:02.072Z,3.20
2023-02-02T16:15:30.825Z,3.20
2023-02-02T16:18:10.940Z,3.30
2023-02-02T16:20:38.103Z,3.30
2023-02-02T16:23:07.178Z,3.20
2023-02-02T16:25:37.475Z,3.30
2023-02-02T16:28:04.805Z,3.30
2023-02-02T16:30:35.683Z,3.30
2023-02-02T16:33:30.700Z,3.20
2023-02-02T16:35:57.859Z,3.30
2023-02-02T16:38:31.084Z,3.20
2023-02-02T16:41:12.891Z,3.20
2023-02-02T16:43:41.547Z,3.30
2023-02-02T16:46:15.256Z,3.30
2023-02-02T16:48:59.701Z,3.30
2023-02-02T16:51:33.811Z,3.20
2023-02-02T16:54:07.089Z,3.20
2023-02-02T16:56:46.101Z,3.10
2023-02-02T16:59:30.187Z,3.10
2023-02-02T17:02:04.139Z,3.10
2023-02-02T17:04:32.656Z,3.10
2023-02-02T17:07:13.165Z,3.00
2023-02-02T17:09:41.651Z,2.90
2023-02-02T17:12:34.958Z,2.90
2023-02-02T17:15:25.745Z,2.90
2023-02-02T17:17:53.524Z,2.90
2023-02-02T17:20:20.736Z,2.90
2023-02-02T17:22:53.303Z,2.90
2023-02-02T17:25:30.524Z,2.90
2023-02-02T17:27:58.649Z,2.90
2023-02-02T17:30:26.068Z,3.00
2023-02-02T17:32:53.141Z,2.90
2023-02-02T17:35:23.554Z,3.00
2023-02-02T17:37:53.947Z,2.90
2023-02-02T17:40:24.469Z,2.90
2023-02-02T17:42:52.996Z,2.90
2023-02-02T17:45:33.824Z,2.90
2023-02-02T17:48:02.128Z,2.90
2023-02-02T17:50:29.814Z,2.90
2023-02-02T17:52:56.937Z,2.80
2023-02-02T17:55:41.716Z,2.90
2023-02-02T17:58:10.786Z,2.90
2023-02-02T18:00:39.497Z,2.80
2023-02-02T18:03:35.895Z,2.80
2023-02-02T18:06:03.841Z,2.80
2023-02-02T18:08:32.245Z,2.80
2023-02-02T18:10:59.581Z,2.80
2023-02-02T18:13:27.857Z,2.80
2023-02-02T18:15:56.080Z,2.80
2023-02-02T18:18:27.415Z,2.80
2023-02-02T18:20:54.527Z,2.80
2023-02-02T18:23:24.770Z,2.70
2023-02-02T18:25:52.948Z,2.80
2023-02-02T18:28:20.745Z,2.80
2023-02-02T18:30:50.527Z,2.90
2023-02-02T18:33:19.715Z,2.80
2023-02-02T18:35:47.668Z,2.80
2023-02-02T18:38:17.251Z,2.80
2023-02-02T18:40:44.361Z,2.80
2023-02-02T18:43:11.602Z,2.80
2023-02-02T18:45:38.729Z,2.80
2023-02-02T18:48:08.210Z,2.80
2023-02-02T18:50:37.555Z,2.70
2023-02-02T18:53:04.617Z,2.60
2023-02-02T18:55:32.476Z,2.60
2023-02-02T18:58:02.570Z,2.50
2023-02-02T19:00:29.781Z,2.50
2023-02-02T19:02:59.323Z,2.40
2023-02-02T19:05:44.844Z,2.50
2023-02-02T19:08:12.039Z,2.40
2023-02-02T19:10:39.754Z,2.40
2023-02-02T19:13:21.402Z,2.40
2023-02-02T19:15:52.090Z,2.50
2023-02-02T19:18:22.021Z,2.50
2023-02-02T19:20:59.688Z,2.40
2023-02-02T19:23:35.723Z,2.40
2023-02-02T19:26:14.166Z,2.40
2023-02-02T19:28:42.958Z,2.40
2023-02-02T19:31:15.042Z,2.40
2023-02-02T19:33:51.245Z,2.30
2023-02-02T19:36:25.274Z,2.30
2023-02-02T19:38:56.017Z,2.20
2023-02-02T19:41:26.183Z,2.20
2023-02-02T19:44:26.716Z,2.20
2023-02-02T19:46:56.181Z,2.20
2023-02-02T19:49:37.263Z,2.00
2023-02-02T19:52:04.463Z,2.00
2023-02-02T19:54:40.946Z,1.90
2023-02-02T19:57:25.964Z,1.90
2023-02-02T19:59:55.408Z,1.90
2023-02-02T20:02:59.727Z,1.80
2023-02-02T20:05:34.230Z,1.90
2023-02-02T20:08:39.864Z,1.80
2023-02-02T20:11:36.071Z,1.80
2023-02-02T20:14:29.457Z,1.90
2023-02-02T20:17:14.241Z,1.90
2023-02-02T20:19:41.629Z,1.80
2023-02-02T20:22:26.833Z,1.70
2023-02-02T20:24:56.443Z,1.60
2023-02-02T20:27:27.161Z,1.60
2023-02-02T20:29:56.584Z,1.70
2023-02-02T20:32:35.289Z,1.70
2023-02-02T20:35:02.541Z,1.60
2023-02-02T20:37:33.325Z,1.60
2023-02-02T20:40:08.022Z,1.60
2023-02-02T20:42:35.273Z,1.50
2023-02-02T20:45:02.422Z,1.60
2023-02-02T20:47:30.027Z,1.50
2023-02-02T20:50:00.392Z,1.40
2023-02-02T20:52:30.964Z,1.40
2023-02-02T20:54:58.139Z,1.40
2023-02-02T20:57:25.264Z,1.40
2023-02-02T20:59:57.477Z,1.40
2023-02-02T21:02:25.120Z,1.40
2023-02-02T21:04:55.059Z,1.30
2023-02-02T21:07:30.761Z,1.30
2023-02-02T21:09:59.375Z,1.30
2023-02-02T21:12:26.555Z,1.30
2023-02-02T21:14:59.958Z,1.30
2023-02-02T21:17:29.994Z,1.30
2023-02-02T21:19:57.134Z,1.30
2023-02-02T21:22:26.678Z,1.40
2023-02-02T21:24:54.790Z,1.30
2023-02-02T21:27:25.355Z,1.30
2023-02-02T21:29:52.588Z,1.30
2023-02-02T21:32:19.683Z,1.20
2023-02-02T21:34:59.926Z,1.20
2023-02-02T21:37:27.092Z,1.20
2023-02-02T21:39:58.101Z,1.20
2023-02-02T21:42:28.166Z,1.20
2023-02-02T21:45:14.537Z,1.20
2023-02-02T21:47:52.086Z,1.30
2023-02-02T21:50:41.280Z,1.40
2023-02-02T21:53:33.860Z,1.40
2023-02-02T21:56:01.023Z,1.40
2023-02-02T21:58:38.914Z,1.30
2023-02-02T22:01:40.651Z,1.40
2023-02-02T22:04:25.084Z,1.30
2023-02-02T22:07:00.132Z,1.30
2023-02-02T22:09:39.982Z,1.20
2023-02-02T22:12:24.074Z,1.20
2023-02-02T22:15:01.018Z,1.20
2023-02-02T22:17:40.974Z,1.20
2023-02-02T22:20:29.254Z,1.20
2023-02-02T22:22:56.440Z,1.20
2023-02-02T22:25:35.958Z,1.10
2023-02-02T22:28:16.376Z,1.10
2023-02-02T22:30:43.652Z,1.20
2023-02-02T22:33:11.822Z,1.20
2023-02-02T22:35:40.143Z,1.20
2023-02-02T22:38:07.330Z,1.20
2023-02-02T22:40:40.807Z,1.20
2023-02-02T22:43:08.700Z,1.20
2023-02-02T22:45:35.894Z,1.20
2023-02-02T22:48:03.314Z,1.20
2023-02-02T22:50:31.071Z,1.20
2023-02-02T22:53:06.380Z,1.20
2023-02-02T22:55:33.819Z,1.20
2023-02-02T22:58:01.160Z,1.20
2023-02-02T23:00:29.828Z,1.20
2023-02-02T23:02:57.168Z,1.20
2023-02-02T23:05:33.288Z,1.20
2023-02-02T23:08:00.441Z,1.20
2023-02-02T23:10:29.606Z,1.20
2023-02-02T23:12:59.257Z,1.20
2023-02-02T23:15:26.756Z,1.20
2023-02-02T23:17:54.228Z,1.20
2023-02-02T23:20:26.015Z,1.20
2023-02-02T23:22:53.331Z,1.20
2023-02-02T23:25:20.436Z,1.20
2023-02-02T23:27:47.783Z,1.20
2023-02-02T23:30:20.482Z,1.20
2023-02-02T23:32:47.943Z,1.20
2023-02-02T23:35:15.031Z,1.20
2023-02-02T23:37:45.432Z,1.20
2023-02-02T23:40:13.148Z,1.20
2023-02-02T23:42:40.249Z,1.20
2023-02-02T23:45:07.822Z,1.20
2023-02-02T23:47:35.163Z,1.20
2023-02-02T23:50:04.589Z,1.20
2023-02-02T23:52:34.921Z,1.20
2023-02-02T23:55:03.476Z,1.20
2023-02-02T23:57:30.602Z,1.20
